createdAt,value
2024-03-05T00:01:27.051Z,9.94
2024-03-05T00:04:02.537Z,9.90
2024-03-05T00:06:30.355Z,9.90
2024-03-05T00:08:57.130Z,9.88
2024-03-05T00:11:24.541Z,9.86
2024-03-05T00:13:51.450Z,9.83
2024-03-05T00:16:21.364Z,9.79
2024-03-05T00:18:48.388Z,9.79
2024-03-05T00:21:18.110Z,9.76
2024-03-05T00:26:21.367Z,9.76
2024-03-05T00:28:48.348Z,9.76
2024-03-05T00:31:15.200Z,9.78
2024-03-05T00:33:45.052Z,9.78
2024-03-05T00:36:11.868Z,9.77
2024-03-05T00:38:38.605Z,9.78
2024-03-05T00:41:05.370Z,9.80
2024-03-05T00:46:07.448Z,9.83
2024-03-05T00:48:35.447Z,9.80
2024-03-05T00:51:14.566Z,9.80
2024-03-05T00:53:41.457Z,9.82
2024-03-05T00:56:09.499Z,9.71
2024-03-05T00:58:36.352Z,9.82
2024-03-05T01:01:12.747Z,9.80
2024-03-05T01:03:39.558Z,9.80
2024-03-05T01:06:09.421Z,9.79
2024-03-05T01:08:36.129Z,9.77
2024-03-05T01:13:38.383Z,9.76
2024-03-05T01:18:46.984Z,9.72
2024-03-05T01:21:13.744Z,9.71
2024-03-05T01:23:41.409Z,9.67
2024-03-05T01:26:18.455Z,9.64
2024-03-05T01:28:45.268Z,9.67
2024-03-05T01:31:12.125Z,9.66
2024-03-05T01:33:38.938Z,9.56
2024-03-05T01:36:06.013Z,9.65
2024-03-05T01:41:14.414Z,9.61
2024-03-05T01:43:41.499Z,9.57
2024-03-05T01:46:08.519Z,9.54
2024-03-05T01:48:35.318Z,9.51
2024-03-05T01:51:04.362Z,9.45
2024-03-05T01:53:37.028Z,9.39
2024-03-05T01:56:04.062Z,9.33
2024-03-05T01:58:31.013Z,9.29
2024-03-05T02:00:57.905Z,9.26
2024-03-05T02:03:27.897Z,9.07
2024-03-05T02:06:00.839Z,9.15
2024-03-05T02:08:28.666Z,9.13
2024-03-05T02:10:56.147Z,9.14
2024-03-05T02:13:23.064Z,9.14
2024-03-05T02:15:51.124Z,9.11
2024-03-05T02:18:17.913Z,9.13
2024-03-05T02:20:44.654Z,9.11
2024-03-05T02:23:11.485Z,9.09
2024-03-05T02:25:48.531Z,9.04
2024-03-05T02:28:15.285Z,9.02
2024-03-05T02:30:42.518Z,9.01
2024-03-05T02:35:45.584Z,9.10
2024-03-05T02:38:12.338Z,9.13
2024-03-05T02:40:42.591Z,9.13
2024-03-05T02:43:09.412Z,9.16
2024-03-05T02:45:46.016Z,9.14
2024-03-05T02:48:12.787Z,9.15
2024-03-05T02:50:39.566Z,9.10
2024-03-05T02:53:07.509Z,9.04
2024-03-05T02:55:34.375Z,8.99
2024-03-05T02:58:07.475Z,8.90
2024-03-05T03:00:35.124Z,8.87
2024-03-05T03:05:43.521Z,8.90
2024-03-05T03:08:10.555Z,8.89
2024-03-05T03:10:39.504Z,8.83
2024-03-05T03:13:06.294Z,8.81
2024-03-05T03:15:33.073Z,8.77
2024-03-05T03:18:11.962Z,8.73
2024-03-05T03:20:38.730Z,8.72
2024-03-05T03:23:05.464Z,8.70
2024-03-05T03:28:07.654Z,8.68
2024-03-05T03:30:40.542Z,8.66
2024-03-05T03:33:10.683Z,8.65
2024-03-05T03:35:38.554Z,8.61
2024-03-05T03:40:44.571Z,8.55
2024-03-05T03:43:11.341Z,8.57
2024-03-05T03:45:41.553Z,8.59
2024-03-05T03:48:08.695Z,8.65
2024-03-05T03:50:35.448Z,8.72
2024-03-05T03:53:02.245Z,8.76
2024-03-05T03:55:29.200Z,8.81
2024-03-05T03:58:02.557Z,8.85
2024-03-05T04:00:29.311Z,8.86
2024-03-05T04:02:56.172Z,8.84
2024-03-05T04:05:23.072Z,8.80
2024-03-05T04:07:51.928Z,8.75
2024-03-05T04:10:33.857Z,8.73
2024-03-05T04:13:02.553Z,8.68
2024-03-05T04:15:32.552Z,8.64
2024-03-05T04:18:02.933Z,8.61
2024-03-05T04:20:30.965Z,8.57
2024-03-05T04:22:57.928Z,8.55
2024-03-05T04:25:25.045Z,8.52
2024-03-05T04:27:51.957Z,8.51
2024-03-05T04:30:18.718Z,8.52
2024-03-05T04:32:58.795Z,8.50
2024-03-05T04:35:35.414Z,8.50
2024-03-05T04:43:12.865Z,8.44
2024-03-05T04:45:39.883Z,8.43
2024-03-05T04:48:16.001Z,8.34
2024-03-05T04:50:54.049Z,8.40
2024-03-05T04:53:29.204Z,8.41
2024-03-05T04:55:56.085Z,8.40
2024-03-05T04:58:22.965Z,8.40
2024-03-05T05:03:25.680Z,8.39
2024-03-05T05:05:52.519Z,8.41
2024-03-05T05:08:19.317Z,8.41
2024-03-05T05:10:48.092Z,8.42
2024-03-05T05:13:15.259Z,8.40
2024-03-05T05:15:42.144Z,8.44
2024-03-05T05:18:11.206Z,8.43
2024-03-05T05:20:38.349Z,8.46
2024-03-05T05:23:08.365Z,8.45
2024-03-05T05:25:35.688Z,8.47
2024-03-05T05:28:08.350Z,8.43
2024-03-05T05:30:37.632Z,8.44
2024-03-05T05:33:23.748Z,8.42
2024-03-05T05:36:00.693Z,8.41
2024-03-05T05:38:27.426Z,8.44
2024-03-05T05:43:29.571Z,8.43
2024-03-05T05:45:57.969Z,8.44
2024-03-05T05:48:29.094Z,8.43
2024-03-05T05:50:57.028Z,8.45
2024-03-05T05:53:23.854Z,8.48
2024-03-05T05:55:58.782Z,8.48
2024-03-05T05:58:25.813Z,8.46
2024-03-05T06:00:52.606Z,8.50
2024-03-05T06:03:21.659Z,8.52
2024-03-05T06:05:48.417Z,8.56
2024-03-05T06:08:15.152Z,8.64
2024-03-05T06:10:50.888Z,8.76
2024-03-05T06:13:17.771Z,8.94
2024-03-05T06:15:44.620Z,9.09
2024-03-05T06:20:50.673Z,9.82
2024-03-05T06:23:17.450Z,10.18
2024-03-05T06:25:45.759Z,10.58
2024-03-05T06:28:13.962Z,11.00
2024-03-05T06:30:40.823Z,11.39
2024-03-05T06:33:10.582Z,11.82
2024-03-05T06:35:37.477Z,12.19
2024-03-05T06:38:04.379Z,12.53
2024-03-05T06:40:34.700Z,12.72
2024-03-05T06:43:01.578Z,12.97
2024-03-05T06:45:29.735Z,13.21
2024-03-05T06:53:06.856Z,13.95
2024-03-05T06:58:16.137Z,14.49
2024-03-05T07:00:44.879Z,14.77
2024-03-05T07:03:11.849Z,14.96
2024-03-05T07:05:38.610Z,15.19
2024-03-05T07:08:05.828Z,15.36
2024-03-05T07:10:39.532Z,15.41
2024-03-05T07:13:06.390Z,15.50
2024-03-05T07:15:33.195Z,15.63
2024-03-05T07:18:00.038Z,15.71
2024-03-05T07:20:26.893Z,15.94
2024-03-05T07:23:00.757Z,16.20
2024-03-05T07:25:27.608Z,16.38
2024-03-05T07:27:54.420Z,16.55
2024-03-05T07:30:26.064Z,16.65
2024-03-05T07:32:52.908Z,16.70
2024-03-05T07:35:22.698Z,16.74
2024-03-05T07:37:49.530Z,16.83
2024-03-05T07:40:21.799Z,16.95
2024-03-05T07:42:53.655Z,16.90
2024-03-05T07:45:21.706Z,16.67
2024-03-05T07:47:57.055Z,16.54
2024-03-05T07:50:24.529Z,16.50
2024-03-05T07:52:52.112Z,16.42
2024-03-05T07:55:25.769Z,16.55
2024-03-05T07:57:56.353Z,16.94
2024-03-05T08:00:23.324Z,17.28
2024-03-05T08:02:53.904Z,17.69
2024-03-05T08:05:27.081Z,18.06
2024-03-05T08:07:55.800Z,18.28
2024-03-05T08:10:26.203Z,18.52
2024-03-05T08:12:59.086Z,18.52
2024-03-05T08:15:26.285Z,18.47
2024-03-05T08:17:54.045Z,18.42
2024-03-05T08:20:23.341Z,18.42
2024-03-05T08:22:50.806Z,18.55
2024-03-05T08:25:18.973Z,18.63
2024-03-05T08:28:01.349Z,18.65
2024-03-05T08:30:29.760Z,18.87
2024-03-05T08:32:57.130Z,19.09
2024-03-05T08:35:25.352Z,19.39
2024-03-05T08:37:56.815Z,19.62
2024-03-05T08:40:34.342Z,19.65
2024-03-05T08:43:01.526Z,19.67
2024-03-05T08:45:29.789Z,19.60
2024-03-05T08:47:56.869Z,19.69
2024-03-05T08:50:24.889Z,19.81
2024-03-05T08:53:02.958Z,19.85
2024-03-05T08:55:29.915Z,19.89
2024-03-05T08:58:03.686Z,19.82
2024-03-05T09:00:37.910Z,19.88
2024-03-05T09:03:09.968Z,19.89
2024-03-05T09:05:37.276Z,19.94
2024-03-05T09:08:04.992Z,20.06
2024-03-05T09:10:31.893Z,20.20
2024-03-05T09:12:59.001Z,20.25
2024-03-05T09:15:25.898Z,20.18
2024-03-05T09:17:52.802Z,20.00
2024-03-05T09:20:19.781Z,19.64
2024-03-05T09:22:47.986Z,19.39
2024-03-05T09:25:15.990Z,19.32
2024-03-05T09:27:50.863Z,19.30
2024-03-05T09:30:19.721Z,19.37
2024-03-05T09:32:49.447Z,19.27
2024-03-05T09:35:16.284Z,19.17
2024-03-05T09:37:50.902Z,19.09
2024-03-05T09:40:17.963Z,19.19
2024-03-05T09:42:46.860Z,19.26
2024-03-05T09:45:19.317Z,19.36
2024-03-05T09:47:51.875Z,19.41
2024-03-05T09:50:19.531Z,19.44
2024-03-05T09:52:54.897Z,19.66
2024-03-05T09:55:30.411Z,20.09
2024-03-05T09:57:58.842Z,20.41
2024-03-05T10:00:26.277Z,20.57
2024-03-05T10:02:56.242Z,20.55
2024-03-05T10:05:25.798Z,20.48
2024-03-05T10:07:52.624Z,20.34
2024-03-05T10:10:20.374Z,20.14
2024-03-05T10:12:50.528Z,20.00
2024-03-05T10:15:22.927Z,19.90
2024-03-05T10:17:52.395Z,19.70
2024-03-05T10:20:32.433Z,19.50
2024-03-05T10:23:04.888Z,19.63
2024-03-05T10:25:33.371Z,19.69
2024-03-05T10:28:00.440Z,19.83
2024-03-05T10:30:30.229Z,20.03
2024-03-05T10:33:06.887Z,20.06
2024-03-05T10:35:34.869Z,19.99
2024-03-05T10:38:14.574Z,19.87
2024-03-05T10:40:42.315Z,19.89
2024-03-05T10:43:10.742Z,19.99
2024-03-05T10:45:48.984Z,20.12
2024-03-05T10:48:16.901Z,20.38
2024-03-05T10:50:46.403Z,20.70
2024-03-05T10:55:53.271Z,21.30
2024-03-05T10:58:20.144Z,21.25
2024-03-05T11:00:47.078Z,21.24
2024-03-05T11:03:14.449Z,21.23
2024-03-05T11:05:45.963Z,21.19
2024-03-05T11:08:13.161Z,21.12
2024-03-05T11:10:47.723Z,21.02
2024-03-05T11:13:15.872Z,21.08
2024-03-05T11:15:55.869Z,21.30
2024-03-05T11:18:36.624Z,21.58
2024-03-05T11:21:19.245Z,21.92
2024-03-05T11:23:52.226Z,22.23
2024-03-05T11:26:20.090Z,22.58
2024-03-05T11:28:48.845Z,22.84
2024-03-05T11:31:28.963Z,23.04
2024-03-05T11:34:14.776Z,23.28
2024-03-05T11:39:17.821Z,23.33
2024-03-05T11:41:49.086Z,23.23
2024-03-05T11:44:35.819Z,23.09
2024-03-05T11:47:03.058Z,23.10
2024-03-05T11:49:30.076Z,22.95
2024-03-05T11:51:57.120Z,22.97
2024-03-05T11:54:32.031Z,23.05
2024-03-05T11:57:00.629Z,23.19
2024-03-05T11:59:39.959Z,23.12
2024-03-05T12:02:11.745Z,22.94
2024-03-05T12:04:42.377Z,22.81
2024-03-05T12:07:14.292Z,22.58
2024-03-05T12:09:41.807Z,22.51
2024-03-05T12:12:10.757Z,22.45
2024-03-05T12:14:56.664Z,22.28
2024-03-05T12:17:26.200Z,22.15
2024-03-05T12:20:08.600Z,22.12
2024-03-05T12:22:38.787Z,22.17
2024-03-05T12:25:12.022Z,22.12
2024-03-05T12:27:38.919Z,22.08
2024-03-05T12:30:07.236Z,22.10
2024-03-05T12:32:38.262Z,22.05
2024-03-05T12:35:06.467Z,22.23
2024-03-05T12:37:33.551Z,22.29
2024-03-05T12:40:00.540Z,22.22
2024-03-05T12:42:27.434Z,22.07
2024-03-05T12:45:09.567Z,22.05
2024-03-05T12:47:37.801Z,22.06
2024-03-05T12:50:13.965Z,22.13
2024-03-05T12:52:40.924Z,22.27
2024-03-05T12:55:08.922Z,22.27
2024-03-05T12:57:37.014Z,22.29
2024-03-05T13:00:07.945Z,22.33
2024-03-05T13:02:45.495Z,22.32
2024-03-05T13:05:20.101Z,22.23
2024-03-05T13:10:22.765Z,22.21
2024-03-05T13:12:59.040Z,22.06
2024-03-05T13:15:28.794Z,22.07
2024-03-05T13:17:55.952Z,21.99
2024-03-05T13:20:29.028Z,21.83
2024-03-05T13:22:55.976Z,21.65
2024-03-05T13:25:27.983Z,21.49
2024-03-05T13:27:55.427Z,21.46
2024-03-05T13:30:22.543Z,21.41
2024-03-05T13:32:51.248Z,21.28
2024-03-05T13:35:18.967Z,21.26
2024-03-05T13:37:48.116Z,21.23
2024-03-05T13:40:16.225Z,21.23
2024-03-05T13:42:43.065Z,21.15
2024-03-05T13:45:16.334Z,20.89
2024-03-05T13:47:44.279Z,20.62
2024-03-05T13:52:50.843Z,20.28
2024-03-05T13:55:21.120Z,20.19
2024-03-05T13:57:49.631Z,20.07
2024-03-05T14:00:18.025Z,19.97
2024-03-05T14:02:45.176Z,19.86
2024-03-05T14:05:13.644Z,19.75
2024-03-05T14:07:40.408Z,19.67
2024-03-05T14:10:15.289Z,19.62
2024-03-05T14:12:46.043Z,19.56
2024-03-05T14:15:16.325Z,19.43
2024-03-05T14:17:43.227Z,19.24
2024-03-05T14:20:12.458Z,19.03
2024-03-05T14:22:41.760Z,18.91
2024-03-05T14:25:11.767Z,18.90
2024-03-05T14:27:38.622Z,18.90
2024-03-05T14:30:09.099Z,18.84
2024-03-05T14:32:36.129Z,18.75
2024-03-05T14:35:06.566Z,18.68
2024-03-05T14:37:33.419Z,18.73
2024-03-05T14:40:01.184Z,18.66
2024-03-05T14:42:35.785Z,18.51
2024-03-05T14:45:06.416Z,18.45
2024-03-05T14:47:33.181Z,18.40
2024-03-05T14:50:00.132Z,18.32
2024-03-05T14:52:30.069Z,18.29
2024-03-05T14:55:00.943Z,18.30
2024-03-05T14:57:29.153Z,18.40
2024-03-05T15:00:02.040Z,18.41
2024-03-05T15:02:28.949Z,18.39
2024-03-05T15:04:55.943Z,18.27
2024-03-05T15:07:22.895Z,18.16
2024-03-05T15:09:49.871Z,18.07
2024-03-05T15:12:16.722Z,18.00
2024-03-05T15:14:53.005Z,17.93
2024-03-05T15:17:22.507Z,17.82
2024-03-05T15:19:49.478Z,17.77
2024-03-05T15:22:17.711Z,17.72
2024-03-05T15:24:44.440Z,17.67
2024-03-05T15:27:13.034Z,17.60
2024-03-05T15:29:48.747Z,17.51
2024-03-05T15:32:19.260Z,17.44
2024-03-05T15:34:46.069Z,17.30
2024-03-05T15:37:14.266Z,17.21
2024-03-05T15:39:41.026Z,17.10
2024-03-05T15:42:07.767Z,17.11
2024-03-05T15:44:34.581Z,17.15
2024-03-05T15:47:01.409Z,17.18
2024-03-05T15:49:28.252Z,17.19
2024-03-05T15:51:55.020Z,17.20
2024-03-05T15:54:21.825Z,17.17
2024-03-05T15:56:50.245Z,17.25
2024-03-05T15:59:17.062Z,17.32
2024-03-05T16:01:43.905Z,17.38
2024-03-05T16:06:46.046Z,17.38
2024-03-05T16:09:21.033Z,17.32
2024-03-05T16:11:48.589Z,17.23
2024-03-05T16:14:23.738Z,17.24
2024-03-05T16:16:50.544Z,17.20
2024-03-05T16:19:17.393Z,17.07
2024-03-05T16:21:44.177Z,16.96
2024-03-05T16:24:12.283Z,16.89
2024-03-05T16:26:39.206Z,16.77
2024-03-05T16:29:06.049Z,16.71
2024-03-05T16:31:32.929Z,16.69
2024-03-05T16:34:03.264Z,16.70
2024-03-05T16:36:30.156Z,16.86
2024-03-05T16:38:57.160Z,16.97
2024-03-05T16:41:27.217Z,17.07
2024-03-05T16:43:54.056Z,17.18
2024-03-05T16:46:20.773Z,17.19
2024-03-05T16:48:47.625Z,17.14
2024-03-05T16:51:17.600Z,17.04
2024-03-05T16:53:44.573Z,16.87
2024-03-05T16:56:13.125Z,16.65
2024-03-05T16:58:46.292Z,16.45
2024-03-05T17:03:48.490Z,16.15
2024-03-05T17:06:16.231Z,16.02
2024-03-05T17:08:49.238Z,15.90
2024-03-05T17:11:16.516Z,15.81
2024-03-05T17:13:43.854Z,15.73
2024-03-05T17:16:10.734Z,15.65
2024-03-05T17:18:37.557Z,15.61
2024-03-05T17:23:40.431Z,15.44
2024-03-05T17:26:14.306Z,15.38
2024-03-05T17:28:41.259Z,15.36
2024-03-05T17:31:12.205Z,15.27
2024-03-05T17:33:39.116Z,15.23
2024-03-05T17:38:41.653Z,15.10
2024-03-05T17:41:15.330Z,15.04
2024-03-05T17:43:42.230Z,15.00
2024-03-05T17:46:13.223Z,14.90
2024-03-05T17:53:56.168Z,14.76
2024-03-05T17:56:31.473Z,14.71
2024-03-05T17:58:58.381Z,14.71
2024-03-05T18:01:25.328Z,14.68
2024-03-05T18:06:27.892Z,14.54
2024-03-05T18:09:00.875Z,14.46
2024-03-05T18:11:29.544Z,14.39
2024-03-05T18:13:56.492Z,14.38
2024-03-05T18:16:23.254Z,14.32
2024-03-05T18:18:50.396Z,14.24
2024-03-05T18:21:17.171Z,14.15
2024-03-05T18:23:47.593Z,14.12
2024-03-05T18:26:14.792Z,14.07
2024-03-05T18:28:41.749Z,13.91
2024-03-05T18:33:44.282Z,13.93
2024-03-05T18:36:11.043Z,13.82
2024-03-05T18:38:37.993Z,13.70
2024-03-05T18:41:05.339Z,13.68
2024-03-05T18:43:32.315Z,13.65
2024-03-05T18:46:00.767Z,13.58
2024-03-05T18:48:27.974Z,13.56
2024-03-05T18:50:54.865Z,13.49
2024-03-05T18:53:32.709Z,13.50
2024-03-05T18:56:09.737Z,13.47
2024-03-05T18:58:36.616Z,13.38
2024-03-05T19:01:04.686Z,13.40
2024-03-05T19:03:31.485Z,13.23
2024-03-05T19:05:59.294Z,13.32
2024-03-05T19:08:26.266Z,13.29
2024-03-05T19:10:53.159Z,13.23
2024-03-05T19:13:22.720Z,13.20
2024-03-05T19:15:49.497Z,13.14
2024-03-05T19:18:16.372Z,13.11
2024-03-05T19:20:46.084Z,13.07
2024-03-05T19:23:13.045Z,13.02
2024-03-05T19:25:46.408Z,12.94
2024-03-05T19:28:15.816Z,12.92
2024-03-05T19:30:42.766Z,12.87
2024-03-05T19:33:11.805Z,12.83
2024-03-05T19:35:41.207Z,12.80
2024-03-05T19:38:11.478Z,12.75
2024-03-05T19:40:38.709Z,12.72
2024-03-05T19:43:08.565Z,12.67
2024-03-05T19:45:35.257Z,12.70
2024-03-05T19:48:02.133Z,12.67
2024-03-05T19:50:30.486Z,12.61
2024-03-05T19:52:57.679Z,12.63
2024-03-05T19:55:32.490Z,12.54
2024-03-05T19:57:59.288Z,12.57
2024-03-05T20:00:26.112Z,12.58
2024-03-05T20:02:53.397Z,12.52
2024-03-05T20:05:20.691Z,12.55
2024-03-05T20:08:08.880Z,12.56
2024-03-05T20:13:20.437Z,12.53
2024-03-05T20:15:56.269Z,12.50
2024-03-05T20:18:27.419Z,12.58
2024-03-05T20:20:58.418Z,12.49
2024-03-05T20:23:42.676Z,12.23
2024-03-05T20:26:26.276Z,12.42
2024-03-05T20:28:53.196Z,12.46
2024-03-05T20:31:20.104Z,12.44
2024-03-05T20:33:48.544Z,12.39
2024-03-05T20:36:16.397Z,12.38
2024-03-05T20:38:56.527Z,12.41
2024-03-05T20:41:33.505Z,12.39
2024-03-05T20:44:00.444Z,12.35
2024-03-05T20:46:27.297Z,12.29
2024-03-05T20:48:54.375Z,12.24
2024-03-05T20:51:24.533Z,12.16
2024-03-05T20:53:51.586Z,12.13
2024-03-05T20:56:31.953Z,12.10
2024-03-05T20:58:58.884Z,12.06
2024-03-05T21:01:25.831Z,12.06
2024-03-05T21:03:52.732Z,12.05
2024-03-05T21:06:23.851Z,12.03
2024-03-05T21:08:51.013Z,12.05
2024-03-05T21:11:20.926Z,12.06
2024-03-05T21:13:49.457Z,12.08
2024-03-05T21:16:16.365Z,12.06
2024-03-05T21:18:44.440Z,12.05
2024-03-05T21:21:11.303Z,12.02
2024-03-05T21:23:38.215Z,11.97
2024-03-05T21:26:27.060Z,11.95
2024-03-05T21:28:59.432Z,11.85
2024-03-05T21:31:30.788Z,11.76
2024-03-05T21:34:02.226Z,11.68
2024-03-05T21:36:35.509Z,11.65
2024-03-05T21:39:02.472Z,11.62
2024-03-05T21:41:30.420Z,11.60
2024-03-05T21:46:39.511Z,11.55
2024-03-05T21:49:06.913Z,11.56
2024-03-05T21:51:39.379Z,11.54
2024-03-05T21:54:06.260Z,11.52
2024-03-05T21:56:33.039Z,11.48
2024-03-05T21:58:59.969Z,11.47
2024-03-05T22:01:26.842Z,11.48
2024-03-05T22:03:53.704Z,11.45
2024-03-05T22:06:35.554Z,11.45
2024-03-05T22:11:39.513Z,11.40
2024-03-05T22:14:07.658Z,11.39
2024-03-05T22:16:34.520Z,11.33
2024-03-05T22:19:10.475Z,11.18
2024-03-05T22:21:45.806Z,11.19
2024-03-05T22:24:12.539Z,11.18
2024-03-05T22:26:41.285Z,11.14
2024-03-05T22:29:08.090Z,11.11
2024-03-05T22:31:35.039Z,11.11
2024-03-05T22:34:01.962Z,11.09
2024-03-05T22:36:29.634Z,11.05
2024-03-05T22:39:00.256Z,10.97
2024-03-05T22:41:29.009Z,10.93
2024-03-05T22:44:03.541Z,10.87
2024-03-05T22:46:30.453Z,10.82
2024-03-05T22:49:04.519Z,10.76
2024-03-05T22:51:45.991Z,10.79
2024-03-05T22:54:19.653Z,10.75
2024-03-05T22:57:00.378Z,10.72
2024-03-05T22:59:27.336Z,10.78
2024-03-05T23:01:54.190Z,10.79
2024-03-05T23:04:20.928Z,10.77
2024-03-05T23:06:48.582Z,10.78
2024-03-05T23:09:22.511Z,10.85
2024-03-05T23:11:54.874Z,10.88
2024-03-05T23:14:25.598Z,10.87
2024-03-05T23:16:52.489Z,10.92
2024-03-05T23:19:19.258Z,10.94
2024-03-05T23:21:54.554Z,10.96
2024-03-05T23:24:21.347Z,11.07
2024-03-05T23:26:48.225Z,11.14
2024-03-05T23:29:16.420Z,11.18
2024-03-05T23:31:49.560Z,11.14
2024-03-05T23:34:24.690Z,11.13
2024-03-05T23:36:51.623Z,11.16
2024-03-05T23:39:18.337Z,11.11
2024-03-05T23:41:47.602Z,11.14
2024-03-05T23:44:17.672Z,11.13
2024-03-05T23:46:45.803Z,11.10
2024-03-05T23:49:12.601Z,11.07
2024-03-05T23:51:47.786Z,11.00
2024-03-05T23:54:17.213Z,10.92
2024-03-05T23:56:45.586Z,10.88
2024-03-05T23:59:12.531Z,10.89
